createdAt,value
2022-11-14T09:42:20.890Z,20.55
2022-11-14T09:45:12.280Z,18.16
2022-11-14T09:48:08.100Z,16.70
2022-11-14T09:51:36.355Z,15.57
2022-11-14T09:54:23.330Z,15.06
2022-11-14T09:57:17.604Z,14.63
2022-11-14T10:00:13.376Z,14.28
2022-11-14T10:03:20.702Z,14.12
2022-11-14T10:06:22.900Z,14.07
2022-11-14T10:09:11.825Z,13.84
2022-11-14T10:12:31.237Z,13.62
2022-11-14T10:15:34.128Z,13.37
2022-11-14T10:18:52.161Z,13.15
2022-11-14T10:21:53.313Z,12.80
2022-11-14T10:25:03.389Z,12.66
2022-11-14T10:28:26.656Z,12.60
2022-11-14T10:31:23.945Z,12.51
2022-11-14T10:34:36.477Z,12.53
2022-11-14T10:37:36.423Z,12.55
2022-11-14T10:40:40.239Z,12.53
2022-11-14T10:43:36.092Z,12.53
2022-11-14T10:46:29.627Z,12.54
2022-11-14T10:49:24.169Z,12.60
2022-11-14T10:52:16.832Z,12.66
2022-11-14T10:55:07.856Z,12.70
2022-11-14T10:57:53.567Z,12.72
2022-11-14T11:00:39.204Z,12.70
2022-11-14T11:03:44.627Z,12.73
2022-11-14T11:06:30.336Z,12.66
2022-11-14T11:09:45.163Z,12.61
2022-11-14T11:12:37.775Z,12.63
2022-11-14T11:15:31.857Z,12.64
2022-11-14T11:18:34.729Z,12.68
2022-11-14T11:21:23.101Z,12.70
2022-11-14T11:24:09.097Z,12.69
2022-11-14T11:27:13.135Z,12.66
2022-11-14T11:30:23.426Z,12.62
2022-11-14T11:33:25.011Z,12.65
2022-11-14T11:36:20.592Z,12.66
2022-11-14T11:39:05.857Z,12.63
2022-11-14T11:42:11.041Z,12.63
2022-11-14T11:45:01.858Z,12.65
2022-11-14T11:48:06.942Z,12.76
2022-11-14T11:50:52.414Z,12.80
2022-11-14T11:53:44.940Z,12.89
2022-11-14T11:56:34.231Z,12.98
2022-11-14T11:59:38.216Z,13.07
2022-11-14T12:02:28.298Z,13.16
2022-11-14T12:05:17.188Z,13.20
2022-11-14T12:08:07.628Z,13.24
2022-11-14T12:10:55.249Z,13.33
2022-11-14T12:14:14.425Z,13.35
2022-11-14T12:17:15.683Z,13.27
2022-11-14T12:20:07.035Z,13.21
2022-11-14T12:23:23.689Z,13.18
2022-11-14T12:26:21.882Z,13.20
2022-11-14T12:29:26.382Z,13.23
2022-11-14T12:32:19.564Z,13.25
2022-11-14T12:35:08.351Z,13.19
2022-11-14T12:37:56.665Z,13.11
2022-11-14T12:40:57.601Z,12.93
2022-11-14T12:43:43.782Z,12.82
2022-11-14T12:47:04.897Z,12.81
2022-11-14T12:49:53.460Z,13.00
2022-11-14T12:52:45.535Z,12.84
2022-11-14T12:55:31.166Z,12.80
2022-11-14T12:58:22.435Z,12.84
2022-11-14T13:01:24.657Z,12.85
2022-11-14T13:04:12.996Z,12.75
2022-11-14T13:07:20.081Z,12.71
2022-11-14T13:10:14.954Z,12.60
2022-11-14T13:13:30.662Z,12.52
2022-11-14T13:16:49.331Z,12.51
2022-11-14T13:20:10.128Z,12.49
2022-11-14T13:22:55.817Z,12.48
2022-11-14T13:25:41.294Z,12.47
2022-11-14T13:28:51.209Z,12.43
2022-11-14T13:31:36.852Z,12.44
2022-11-14T13:34:46.411Z,12.40
2022-11-14T13:37:41.001Z,12.39
2022-11-14T13:40:38.560Z,12.28
2022-11-14T13:43:45.409Z,12.20
2022-11-14T13:46:52.251Z,12.16
2022-11-14T13:49:40.812Z,12.16
2022-11-14T13:52:31.891Z,12.14
2022-11-14T13:55:28.416Z,12.07
2022-11-14T13:58:22.976Z,12.05
2022-11-14T14:01:30.108Z,12.04
2022-11-14T14:04:34.527Z,11.98
2022-11-14T14:07:27.707Z,11.90
2022-11-14T14:10:16.696Z,11.89
2022-11-14T14:13:11.945Z,11.90
2022-11-14T14:16:34.930Z,11.94
2022-11-14T14:19:42.851Z,11.94
2022-11-14T14:22:33.706Z,11.92
2022-11-14T14:25:26.805Z,11.82
2022-11-14T14:28:41.407Z,11.73
2022-11-14T14:31:36.307Z,11.76
2022-11-14T14:34:42.123Z,11.78
2022-11-14T14:37:29.733Z,11.82
2022-11-14T14:40:27.573Z,11.82
2022-11-14T14:43:24.755Z,11.85
2022-11-14T14:46:10.796Z,11.86
2022-11-14T14:48:58.005Z,11.86
2022-11-14T14:51:44.849Z,11.86
2022-11-14T14:54:30.861Z,11.75
2022-11-14T14:57:23.034Z,11.75
2022-11-14T15:00:20.662Z,11.71
2022-11-14T15:03:07.088Z,11.72
2022-11-14T15:06:04.261Z,11.69
2022-11-14T15:08:50.162Z,11.70
2022-11-14T15:11:40.024Z,11.69
2022-11-14T15:14:30.040Z,11.65
2022-11-14T15:17:16.065Z,11.65
2022-11-14T15:20:01.629Z,11.58
2022-11-14T15:23:10.242Z,11.49
2022-11-14T15:26:15.183Z,11.43
2022-11-14T15:29:21.134Z,11.38
2022-11-14T15:32:06.895Z,11.35
2022-11-14T15:35:30.321Z,11.29
2022-11-14T15:38:42.602Z,11.22
2022-11-14T15:41:23.935Z,11.17
2022-11-14T15:44:33.862Z,11.15
2022-11-14T15:47:34.597Z,11.16
2022-11-14T15:50:27.439Z,11.22
2022-11-14T15:53:28.517Z,11.23
2022-11-14T15:56:14.647Z,11.08
2022-11-14T15:59:01.585Z,11.01
2022-11-14T16:01:51.844Z,11.00
2022-11-14T16:04:41.826Z,11.03
2022-11-14T16:07:31.943Z,10.93
2022-11-14T16:10:23.486Z,10.98
2022-11-14T16:13:10.232Z,10.93
2022-11-14T16:15:56.045Z,10.88
2022-11-14T16:18:42.072Z,10.85
2022-11-14T16:21:28.537Z,10.84
2022-11-14T16:24:19.894Z,10.83
2022-11-14T16:27:05.166Z,10.78
2022-11-14T16:29:51.468Z,10.86
2022-11-14T16:32:36.862Z,10.87
2022-11-14T16:35:24.867Z,10.93
2022-11-14T16:38:13.178Z,10.94
2022-11-14T16:41:00.723Z,10.84
2022-11-14T16:43:46.308Z,10.83
2022-11-14T16:46:32.697Z,10.80
2022-11-14T16:49:20.037Z,10.84
2022-11-14T16:52:08.789Z,10.86
2022-11-14T16:54:54.337Z,10.85
2022-11-14T16:57:40.660Z,10.91
2022-11-14T17:00:25.966Z,10.92
2022-11-14T17:03:11.447Z,10.97
2022-11-14T17:05:57.008Z,10.97
2022-11-14T17:08:42.462Z,11.03
2022-11-14T17:11:28.977Z,11.00
2022-11-14T17:14:14.577Z,11.03
2022-11-14T17:17:03.166Z,11.06
2022-11-14T17:19:49.553Z,11.11
2022-11-14T17:22:34.943Z,11.13
2022-11-14T17:25:21.333Z,11.17
2022-11-14T17:28:06.976Z,11.15
2022-11-14T17:30:53.091Z,11.11
2022-11-14T17:33:38.788Z,11.15
2022-11-14T17:36:26.844Z,11.20
2022-11-14T17:39:15.426Z,11.22
2022-11-14T17:42:00.823Z,11.24
2022-11-14T17:44:46.550Z,11.24
2022-11-14T17:47:32.320Z,11.26
2022-11-14T17:50:18.257Z,11.27
2022-11-14T17:53:03.733Z,11.25
2022-11-14T17:55:57.237Z,11.20
2022-11-14T17:58:42.935Z,11.25
2022-11-14T18:01:30.949Z,11.25
2022-11-14T18:04:17.577Z,11.12
2022-11-14T18:07:03.582Z,11.28
2022-11-14T18:09:50.972Z,11.28
2022-11-14T18:12:36.857Z,11.29
2022-11-14T18:15:27.779Z,11.29
2022-11-14T18:18:14.002Z,11.30
2022-11-14T18:21:10.666Z,11.22
2022-11-14T18:23:58.996Z,11.28
2022-11-14T18:26:44.275Z,11.27
2022-11-14T18:29:31.772Z,11.29
2022-11-14T18:32:18.226Z,11.30
2022-11-14T18:35:04.890Z,11.27
2022-11-14T18:37:51.472Z,11.28
2022-11-14T18:40:37.744Z,11.28
2022-11-14T18:43:24.505Z,11.28
2022-11-14T18:46:12.890Z,11.31
2022-11-14T18:48:59.157Z,11.29
2022-11-14T18:51:45.262Z,11.27
2022-11-14T18:54:31.259Z,11.30
2022-11-14T18:57:17.096Z,11.32
2022-11-14T19:00:04.074Z,11.28
2022-11-14T19:02:53.688Z,11.32
2022-11-14T19:05:40.690Z,11.31
2022-11-14T19:08:27.040Z,11.31
2022-11-14T19:11:33.567Z,11.31
2022-11-14T19:14:20.571Z,11.14
2022-11-14T19:17:07.318Z,11.25
2022-11-14T19:19:55.576Z,11.29
2022-11-14T19:22:41.207Z,11.28
2022-11-14T19:25:26.515Z,11.27
2022-11-14T19:28:11.735Z,11.27
2022-11-14T19:31:06.892Z,11.26
2022-11-14T19:33:52.549Z,11.27
2022-11-14T19:36:58.858Z,11.27
2022-11-14T19:39:44.202Z,11.25
2022-11-14T19:42:30.167Z,11.29
2022-11-14T19:45:15.948Z,11.31
2022-11-14T19:48:01.969Z,11.29
2022-11-14T19:50:48.533Z,11.27
2022-11-14T19:53:36.670Z,11.25
2022-11-14T19:56:23.916Z,11.28
2022-11-14T19:59:14.321Z,11.26
2022-11-14T20:02:01.412Z,11.31
2022-11-14T20:04:47.740Z,11.30
2022-11-14T20:07:35.504Z,11.31
2022-11-14T20:10:21.147Z,11.26
2022-11-14T20:13:06.816Z,11.23
2022-11-14T20:15:52.470Z,11.22
2022-11-14T20:18:39.531Z,11.22
2022-11-14T20:21:27.072Z,11.19
2022-11-14T20:24:14.496Z,11.19
2022-11-14T20:27:00.090Z,11.21
2022-11-14T20:29:46.682Z,11.24
2022-11-14T20:32:32.541Z,11.25
2022-11-14T20:35:18.256Z,11.19
2022-11-14T20:38:06.212Z,11.26
2022-11-14T20:40:56.470Z,11.21
2022-11-14T20:43:43.014Z,11.16
2022-11-14T20:46:32.845Z,11.16
2022-11-14T20:49:18.899Z,11.18
2022-11-14T20:52:05.923Z,11.19
2022-11-14T20:54:52.150Z,11.16
2022-11-14T20:57:37.696Z,11.06
2022-11-14T21:00:23.642Z,11.05
2022-11-14T21:03:10.474Z,11.11
2022-11-14T21:05:57.288Z,11.15
2022-11-14T21:08:43.186Z,11.18
2022-11-14T21:11:29.651Z,11.19
2022-11-14T21:14:15.282Z,11.19
2022-11-14T21:17:00.806Z,11.19
2022-11-14T21:19:46.132Z,11.12
2022-11-14T21:22:31.547Z,11.15
2022-11-14T21:25:16.946Z,11.14
2022-11-14T21:28:02.687Z,11.14
2022-11-14T21:30:49.658Z,11.12
2022-11-14T21:33:35.196Z,11.16
2022-11-14T21:39:26.690Z,11.17
2022-11-14T21:42:18.752Z,11.17
2022-11-14T21:45:06.653Z,11.16
2022-11-14T21:47:52.186Z,11.17
2022-11-14T21:50:37.765Z,11.20
2022-11-14T21:53:23.143Z,11.33
2022-11-14T21:56:11.910Z,11.33
2022-11-14T21:59:16.139Z,11.35
2022-11-14T22:02:20.000Z,11.38
2022-11-14T22:05:06.630Z,11.37
2022-11-14T22:07:52.025Z,11.15
2022-11-14T22:10:37.549Z,11.24
2022-11-14T22:13:23.077Z,11.29
2022-11-14T22:16:11.438Z,11.29
2022-11-14T22:19:01.972Z,11.26
2022-11-14T22:21:50.140Z,11.26
2022-11-14T22:24:35.738Z,11.29
2022-11-14T22:27:21.428Z,11.23
2022-11-14T22:30:07.541Z,11.21
2022-11-14T22:32:53.021Z,11.19
2022-11-14T22:35:38.681Z,11.16
2022-11-14T22:38:24.299Z,11.11
2022-11-14T22:41:16.123Z,11.13
2022-11-14T22:44:02.211Z,11.12
2022-11-14T22:46:47.578Z,11.08
2022-11-14T22:49:33.114Z,11.07
2022-11-14T22:52:18.489Z,11.13
2022-11-14T22:55:03.839Z,11.14
2022-11-14T22:57:49.427Z,11.14
2022-11-14T23:00:35.506Z,11.14
2022-11-14T23:03:21.821Z,11.13
2022-11-14T23:06:12.472Z,11.08
2022-11-14T23:08:58.099Z,11.11
2022-11-14T23:11:43.642Z,11.13
2022-11-14T23:14:29.035Z,11.16
2022-11-14T23:17:14.320Z,11.07
2022-11-14T23:19:59.834Z,11.17
2022-11-14T23:22:46.065Z,11.20
2022-11-14T23:25:31.579Z,11.23
2022-11-14T23:28:17.124Z,11.20
2022-11-14T23:31:03.484Z,11.19
2022-11-14T23:33:52.785Z,11.19
2022-11-14T23:36:38.328Z,11.19
2022-11-14T23:39:23.982Z,11.19
2022-11-14T23:42:09.312Z,11.21
2022-11-14T23:44:54.817Z,11.20
2022-11-14T23:47:40.385Z,11.18
2022-11-14T23:50:25.840Z,11.19
2022-11-14T23:53:12.321Z,11.21
2022-11-14T23:55:59.743Z,11.22
2022-11-14T23:58:45.346Z,11.24
